Time;durP1;ratioP1;P1;durP2;ratioP2;P2;SDS_P1;SDS_P2;PMS_P1;PMS_P2;Temp;Humidity;BMP_temperature;BMP_pressure;BME280_temperature;BME280_humidity;BME280_pressure;Samples;Min_cycle;Max_cycle;Signal;HPM_P1;HPM_P2
2023/05/05 00:01:31;;;;;;;1999.90;999.90;;;;;;;11.38;100.00;95409.47;5011332;28;20273;-67
2023/05/05 00:03:57;;;;;;;1999.90;999.90;;;;;;;11.39;100.00;95422.72;5011462;28;20210;-68
2023/05/05 00:06:22;;;;;;;1999.90;999.90;;;;;;;11.36;100.00;95411.84;5010949;28;20273;-67
2023/05/05 00:08:47;;;;;;;1999.90;999.90;;;;;;;11.31;100.00;95412.25;5010914;28;20238;-67
2023/05/05 00:11:13;;;;;;;1999.90;999.90;;;;;;;11.19;100.00;95408.13;5011010;28;20202;-67
2023/05/05 00:13:38;;;;;;;1999.90;999.90;;;;;;;11.11;100.00;95405.84;5011087;28;20199;-67
2023/05/05 00:16:04;;;;;;;1999.90;999.90;;;;;;;11.10;100.00;95399.59;5010716;28;20202;-67
2023/05/05 00:18:32;;;;;;;1999.90;999.90;;;;;;;11.09;100.00;95400.78;5011131;28;20203;-68
2023/05/05 00:20:57;;;;;;;1999.90;999.90;;;;;;;11.09;100.00;95392.59;5011152;28;20243;-68
2023/05/05 00:23:23;;;;;;;1999.90;999.90;;;;;;;11.08;100.00;95387.53;5011174;28;20270;-67
2023/05/05 00:25:48;;;;;;;1999.90;999.90;;;;;;;11.02;100.00;95394.59;5010830;28;20203;-67
2023/05/05 00:28:13;;;;;;;1999.90;999.90;;;;;;;10.94;100.00;95383.00;5010803;28;20213;-67
2023/05/05 00:30:39;;;;;;;1999.90;999.90;;;;;;;10.90;100.00;95384.97;5010554;28;20215;-66
2023/05/05 00:33:05;;;;;;;1999.90;999.90;;;;;;;10.86;100.00;95383.47;5010565;28;20275;-66
2023/05/05 00:35:30;;;;;;;1999.90;999.90;;;;;;;10.79;100.00;95383.53;5010557;28;20221;-67
2023/05/05 00:37:56;;;;;;;1999.90;999.90;;;;;;;10.76;100.00;95378.84;5010500;28;20202;-66
2023/05/05 00:40:22;;;;;;;1999.90;999.90;;;;;;;10.74;100.00;95375.78;5009531;28;20199;-66
2023/05/05 00:42:51;;;;;;;1999.90;999.90;;;;;;;10.71;100.00;95371.13;5010412;28;20218;-66
2023/05/05 00:45:17;;;;;;;1999.90;999.90;;;;;;;10.68;100.00;95367.25;5010872;28;20231;-66
2023/05/05 00:47:46;;;;;;;1999.90;999.90;;;;;;;10.69;100.00;95362.53;5010353;28;20389;-66
2023/05/05 00:50:22;;;;;;;1999.90;999.90;;;;;;;10.70;100.00;95358.66;5010338;28;20287;-66
2023/05/05 00:52:49;;;;;;;1999.90;999.90;;;;;;;10.68;100.00;95355.53;5010587;28;20204;-67
2023/05/05 00:55:15;;;;;;;1999.90;999.90;;;;;;;10.66;100.00;95357.88;5009927;28;20209;-67
2023/05/05 00:57:40;;;;;;;1999.90;999.90;;;;;;;10.64;100.00;95349.31;5010477;28;20223;-67
2023/05/05 01:00:08;;;;;;;1999.90;999.90;;;;;;;10.62;100.00;95338.81;5009816;28;20197;-67
2023/05/05 01:02:34;;;;;;;1999.90;999.90;;;;;;;10.61;100.00;95333.75;5009893;28;20194;-66
2023/05/05 01:05:00;;;;;;;1999.90;999.90;;;;;;;10.61;100.00;95328.28;5009852;28;20195;-67
2023/05/05 01:07:40;;;;;;;1999.90;999.90;;;;;;;10.60;100.00;95327.50;5009826;28;20269;-66
2023/05/05 01:10:11;;;;;;;1999.90;999.90;;;;;;;10.56;100.00;95320.53;5009745;28;20235;-66
2023/05/05 01:12:43;;;;;;;1999.90;999.90;;;;;;;10.55;100.00;95313.50;5010039;28;20190;-68
2023/05/05 01:15:30;;;;;;;1999.90;999.90;;;;;;;10.54;100.00;95314.69;5010239;28;20205;-66
2023/05/05 01:18:10;;;;;;;1999.90;999.90;;;;;;;10.52;100.00;95312.38;5009752;28;20197;-66
2023/05/05 01:20:48;;;;;;;1999.90;999.90;;;;;;;10.51;100.00;95305.38;5009613;28;20201;-67
2023/05/05 01:23:28;;;;;;;1999.90;999.90;;;;;;;10.52;100.00;95295.22;5009562;28;20204;-67
2023/05/05 01:26:31;;;;;;;1999.90;999.90;;;;;;;10.46;100.00;95299.56;5009708;28;20292;-67
2023/05/05 01:29:15;;;;;;;1999.90;999.90;;;;;;;10.41;100.00;95302.75;5009213;28;20202;-66
2023/05/05 01:31:43;;;;;;;1999.90;999.90;;;;;;;10.40;100.00;95301.16;5009422;28;20206;-68
2023/05/05 01:34:14;;;;;;;1999.90;999.90;;;;;;;10.38;100.00;95270.78;5009473;28;20199;-68
2023/05/05 01:36:43;;;;;;;1999.90;999.90;;;;;;;10.35;100.00;95272.38;5009367;28;20205;-68
2023/05/05 01:39:14;;;;;;;1999.90;999.90;;;;;;;10.32;100.00;95262.25;5009380;28;20200;-69
2023/05/05 01:41:44;;;;;;;1999.90;999.90;;;;;;;10.27;100.00;95251.00;5009600;28;20220;-68
2023/05/05 01:44:12;;;;;;;1999.90;999.90;;;;;;;10.28;100.00;95249.81;5009188;28;20173;-68
2023/05/05 01:46:37;;;;;;;1999.90;999.90;;;;;;;10.28;100.00;95249.81;5009341;28;20192;-69
2023/05/05 01:49:03;;;;;;;1999.90;999.90;;;;;;;10.25;100.00;95236.97;5009726;28;20207;-67
2023/05/05 01:51:29;;;;;;;1999.90;999.90;;;;;;;10.24;100.00;95232.72;5008609;28;20216;-67
2023/05/05 01:54:04;;;;;;;1999.90;999.90;;;;;;;10.22;100.00;95227.66;5008674;28;20269;-68
2023/05/05 01:56:31;;;;;;;1999.90;999.90;;;;;;;10.21;100.00;95220.66;5009188;28;20201;-69
2023/05/05 01:58:59;;;;;;;1999.90;999.90;;;;;;;10.13;100.00;95212.94;5009041;28;20195;-68
2023/05/05 02:01:26;;;;;;;1999.90;999.90;;;;;;;10.14;100.00;95207.84;5009333;28;20193;-68
2023/05/05 02:03:54;;;;;;;1999.90;999.90;;;;;;;10.11;100.00;95202.44;5009314;28;20273;-68
2023/05/05 02:06:21;;;;;;;1999.90;999.90;;;;;;;10.08;100.00;95193.09;5008922;28;20221;-68
2023/05/05 02:08:49;;;;;;;1999.90;999.90;;;;;;;10.06;100.00;95184.53;5008607;28;20224;-68
2023/05/05 02:11:15;;;;;;;1999.90;999.90;;;;;;;10.03;100.00;95207.13;5008848;28;20219;-68
2023/05/05 02:13:43;;;;;;;1999.90;999.90;;;;;;;9.99;100.00;95187.28;5008569;28;20198;-68
2023/05/05 02:16:09;;;;;;;1999.90;999.90;;;;;;;9.94;100.00;95187.75;5008709;28;20200;-69
2023/05/05 02:18:36;;;;;;;1999.90;999.90;;;;;;;9.94;100.00;95174.09;5008757;28;20231;-67
2023/05/05 02:21:02;;;;;;;1999.90;999.90;;;;;;;9.91;100.00;95158.53;5008255;28;20299;-68
2023/05/05 02:23:28;;;;;;;1999.90;999.90;;;;;;;9.91;100.00;95155.81;5008335;28;20210;-68
2023/05/05 02:25:59;;;;;;;1999.90;999.90;;;;;;;9.87;100.00;95155.09;5008295;28;20240;-67
2023/05/05 02:28:33;;;;;;;1999.90;999.90;;;;;;;9.84;100.00;95142.25;5008261;28;20203;-68
2023/05/05 02:30:59;;;;;;;1999.90;999.90;;;;;;;9.82;100.00;95120.06;5008733;28;20268;-68
2023/05/05 02:33:30;;;;;;;1999.90;999.90;;;;;;;9.79;100.00;95109.97;5008186;28;20202;-68
2023/05/05 02:35:56;;;;;;;1999.90;999.90;;;;;;;9.78;100.00;95102.19;5008942;28;20180;-68
2023/05/05 02:38:26;;;;;;;1999.90;999.90;;;;;;;9.76;100.00;95091.69;5008473;28;20304;-68
2023/05/05 02:40:55;;;;;;;1999.90;999.90;;;;;;;9.71;100.00;95086.69;5008282;28;20239;-68
2023/05/05 02:43:23;;;;;;;1999.90;999.90;;;;;;;9.70;100.00;95079.66;5008450;28;20209;-68
2023/05/05 02:45:48;;;;;;;1999.90;999.90;;;;;;;9.71;100.00;95069.53;5008522;28;20245;-68
2023/05/05 02:48:14;;;;;;;1999.90;999.90;;;;;;;9.66;100.00;95062.56;5008065;28;20200;-67
2023/05/05 02:50:39;;;;;;;1999.90;999.90;;;;;;;9.66;100.00;95068.03;5007934;28;20221;-67
2023/05/05 02:53:04;;;;;;;1999.90;999.90;;;;;;;9.66;100.00;95057.13;5008071;28;20201;-66
2023/05/05 02:55:52;;;;;;;1999.90;999.90;;;;;;;9.67;100.00;95041.53;5008087;28;20263;-66
2023/05/05 02:58:30;;;;;;;1999.90;999.90;;;;;;;9.66;100.00;95035.31;5008065;28;20196;-67
2023/05/05 03:01:17;;;;;;;1999.90;999.90;;;;;;;9.60;100.00;95023.31;5008323;28;20232;-67
2023/05/05 03:03:50;;;;;;;1999.90;999.90;;;;;;;9.59;100.00;95023.72;5007938;28;20269;-66
2023/05/05 03:06:21;;;;;;;1999.90;999.90;;;;;;;9.59;100.00;95013.56;5007931;28;20202;-66
2023/05/05 03:09:05;;;;;;;1999.90;999.90;;;;;;;9.56;100.00;94976.25;5007868;28;20221;-67
2023/05/05 03:11:48;;;;;;;1999.90;999.90;;;;;;;9.53;100.00;94977.06;5008499;28;20192;-68
2023/05/05 03:14:17;;;;;;;1999.90;999.90;;;;;;;9.51;100.00;94970.47;5008168;28;20183;-68
2023/05/05 03:16:43;;;;;;;1999.90;999.90;;;;;;;9.53;100.00;94977.06;5008129;28;20205;-68
2023/05/05 03:19:10;;;;;;;1999.90;999.90;;;;;;;9.55;100.00;94969.22;5007897;28;20205;-67
2023/05/05 03:21:37;;;;;;;1999.90;999.90;;;;;;;9.57;100.00;94966.88;5007626;28;20201;-68
2023/05/05 03:24:18;;;;;;;1999.90;999.90;;;;;;;9.60;100.00;94954.38;5007882;28;20193;-68
2023/05/05 03:26:45;;;;;;;1999.90;999.90;;;;;;;9.61;100.00;94951.25;5007392;28;20203;-68
2023/05/05 03:29:10;;;;;;;1999.90;999.90;;;;;;;9.61;100.00;94947.75;5007779;28;20189;-69
2023/05/05 03:31:36;;;;;;;1999.90;999.90;;;;;;;9.63;100.00;94943.47;5007348;28;20200;-68
2023/05/05 03:34:01;;;;;;;1999.90;999.90;;;;;;;9.65;100.00;94930.19;5007685;28;20194;-68
2023/05/05 03:36:27;;;;;;;1999.90;999.90;;;;;;;9.68;100.00;94929.38;5007774;28;20195;-69
2023/05/05 03:38:52;;;;;;;1999.90;999.90;;;;;;;9.72;100.00;94923.84;5007310;28;20265;-68
2023/05/05 03:41:19;;;;;;;1999.90;999.90;;;;;;;9.76;100.00;94911.72;5007806;28;20258;-69
2023/05/05 03:43:44;;;;;;;1999.90;999.90;;;;;;;9.77;100.00;94904.34;5007776;28;20203;-68
2023/05/05 03:46:10;;;;;;;1999.90;999.90;;;;;;;9.78;100.00;94889.50;5007771;28;20203;-68
2023/05/05 03:48:35;;;;;;;1999.90;999.90;;;;;;;9.79;100.00;94891.03;5007453;28;20196;-67
2023/05/05 03:51:00;;;;;;;1999.90;999.90;;;;;;;9.78;100.00;94890.28;5007715;28;20214;-67
2023/05/05 03:53:26;;;;;;;1999.90;999.90;;;;;;;9.80;100.00;94881.72;5007956;28;20198;-67
2023/05/05 03:55:51;;;;;;;1999.90;999.90;;;;;;;9.83;100.00;94870.75;5007692;28;20202;-67
2023/05/05 03:58:17;;;;;;;1999.90;999.90;;;;;;;9.85;100.00;94865.66;5007343;28;20200;-67
2023/05/05 04:00:43;;;;;;;1999.90;999.90;;;;;;;9.89;100.00;94863.66;5006906;28;20210;-67
2023/05/05 04:03:09;;;;;;;1999.90;999.90;;;;;;;9.91;100.00;94861.28;5007380;28;20198;-67
2023/05/05 04:05:34;;;;;;;1999.90;999.90;;;;;;;10.02;100.00;94853.69;5007095;28;20205;-70
2023/05/05 04:08:00;;;;;;;1999.90;999.90;;;;;;;10.04;100.00;94848.63;5007050;28;20227;-68
2023/05/05 04:10:26;;;;;;;1999.90;999.90;;;;;;;10.07;100.00;94858.75;5007416;28;20237;-67
2023/05/05 04:12:51;;;;;;;1999.90;999.90;;;;;;;10.16;100.00;94865.63;5007620;28;20202;-67
2023/05/05 04:15:16;;;;;;;1999.90;999.90;;;;;;;10.34;100.00;94866.13;5007124;28;20191;-67
2023/05/05 04:17:42;;;;;;;1999.90;999.90;;;;;;;10.49;100.00;94875.63;5011037;28;20201;-63
2023/05/05 04:20:08;;;;;;;1999.90;999.90;;;;;;;10.60;100.00;94903.53;5011055;28;20200;-67
2023/05/05 04:22:33;;;;;;;1999.90;999.90;;;;;;;10.68;100.00;94929.53;5010872;28;20198;-69
2023/05/05 04:24:59;;;;;;;1999.90;999.90;;;;;;;10.84;100.00;94946.81;5010426;28;20191;-67
2023/05/05 04:27:25;;;;;;;1999.90;999.90;;;;;;;11.24;100.00;94951.19;5010913;28;20265;-67
2023/05/05 04:29:50;;;;;;;1999.90;999.90;;;;;;;11.77;100.00;95004.91;5010965;28;20281;-67
2023/05/05 04:32:16;;;;;;;1999.90;999.90;;;;;;;12.32;100.00;95073.44;5010614;28;20191;-67
2023/05/05 04:34:41;;;;;;;1999.90;999.90;;;;;;;12.74;100.00;95171.16;5010869;28;20190;-68
2023/05/05 04:37:07;;;;;;;1999.90;999.90;;;;;;;12.76;100.00;95256.47;5010698;28;20241;-67
2023/05/05 04:39:32;;;;;;;1999.90;999.90;;;;;;;12.79;100.00;95299.50;5010202;28;20265;-68
2023/05/05 04:41:58;;;;;;;1999.90;999.90;;;;;;;12.75;100.00;95326.19;5010844;28;20178;-68
2023/05/05 04:44:23;;;;;;;1999.90;999.90;;;;;;;13.02;100.00;95329.63;5010118;28;20202;-68
2023/05/05 04:46:48;;;;;;;1999.90;999.90;;;;;;;13.36;100.00;95338.34;5010838;28;20230;-67
2023/05/05 04:49:13;;;;;;;1999.90;999.90;;;;;;;13.77;100.00;95357.88;5010015;28;20215;-68
2023/05/05 04:51:42;;;;;;;1999.90;999.90;;;;;;;14.07;100.00;95382.34;5010490;28;20191;-67
2023/05/05 04:54:07;;;;;;;1999.90;999.90;;;;;;;14.48;100.00;95401.84;5010090;28;20225;-68
2023/05/05 04:56:33;;;;;;;1999.90;999.90;;;;;;;14.77;100.00;95408.22;5010173;28;20182;-67
2023/05/05 04:58:58;;;;;;;1999.90;999.90;;;;;;;14.85;100.00;95425.31;5010018;28;20191;-67
2023/05/05 05:01:24;;;;;;;1999.90;999.90;;;;;;;15.50;100.00;95422.09;5010499;28;20190;-68
2023/05/05 05:03:49;;;;;;;1999.90;999.90;;;;;;;15.73;100.00;95435.63;5010059;28;20259;-70
2023/05/05 05:06:15;;;;;;;1999.90;999.90;;;;;;;16.18;100.00;95441.81;5009742;28;20271;-69
2023/05/05 05:08:41;;;;;;;1999.90;999.90;;;;;;;16.83;100.00;95441.47;5009762;28;20191;-67
2023/05/05 05:11:07;;;;;;;1999.90;999.90;;;;;;;17.04;100.00;95443.56;5009534;28;20266;-67
2023/05/05 05:13:32;;;;;;;1999.90;999.90;;;;;;;17.17;100.00;95447.84;5010122;28;20191;-67
2023/05/05 05:15:58;;;;;;;1999.90;999.90;;;;;;;17.55;100.00;95445.03;5010300;28;20195;-68
2023/05/05 05:18:23;;;;;;;1999.90;999.90;;;;;;;16.88;100.00;95451.94;5009833;28;20252;-68
2023/05/05 05:20:48;;;;;;;1999.90;999.90;;;;;;;16.21;100.00;95457.47;5009922;28;20218;-66
2023/05/05 05:23:14;;;;;;;1999.90;999.90;;;;;;;15.90;100.00;95450.13;5009928;28;20197;-67
2023/05/05 05:25:39;;;;;;;1999.90;999.90;;;;;;;15.65;100.00;95455.53;5009410;28;20218;-66
2023/05/05 05:28:05;;;;;;;1999.90;999.90;;;;;;;15.49;100.00;95458.31;5009334;28;20222;-66
2023/05/05 05:30:30;;;;;;;1999.90;999.90;;;;;;;15.41;100.00;95463.22;5009994;28;20278;-67
2023/05/05 05:32:55;;;;;;;1999.90;999.90;;;;;;;15.33;100.00;95456.34;5009399;28;20262;-66
2023/05/05 05:35:21;;;;;;;1999.90;999.90;;;;;;;15.63;100.00;95464.22;5009289;28;20187;-66
2023/05/05 05:37:46;;;;;;;1999.90;999.90;;;;;;;16.13;100.00;95458.13;5009483;28;20218;-67
2023/05/05 05:40:12;;;;;;;1999.90;999.90;;;;;;;17.03;100.00;95459.34;5009128;28;20207;-68
2023/05/05 05:42:38;;;;;;;1999.90;999.90;;;;;;;17.34;100.00;95465.03;5008836;28;20183;-68
2023/05/05 05:45:05;;;;;;;1999.90;999.90;;;;;;;17.26;100.00;95467.25;5009158;28;20211;-68
2023/05/05 05:47:31;;;;;;;1999.90;999.90;;;;;;;17.24;100.00;95466.94;5009399;28;20187;-66
2023/05/05 05:49:56;;;;;;;1999.90;999.90;;;;;;;17.29;100.00;95460.84;5009497;28;20207;-66
2023/05/05 05:52:22;;;;;;;1999.90;999.90;;;;;;;17.46;100.00;95464.25;5009296;28;20241;-65
2023/05/05 05:54:47;;;;;;;1999.90;999.90;;;;;;;18.29;100.00;95471.53;5008793;28;20195;-66
2023/05/05 05:57:12;;;;;;;1999.90;999.90;;;;;;;18.90;100.00;95468.06;5008625;28;20265;-67
2023/05/05 05:59:38;;;;;;;1999.90;999.90;;;;;;;18.78;100.00;95468.94;5009073;28;20206;-66
2023/05/05 06:02:03;;;;;;;1999.90;999.90;;;;;;;19.32;100.00;95474.72;5008811;28;20187;-68
2023/05/05 06:04:30;;;;;;;1999.90;999.90;;;;;;;20.57;100.00;95470.47;5008504;28;20191;-65
2023/05/05 06:06:55;;;;;;;1999.90;999.90;;;;;;;21.98;100.00;95461.66;5009255;28;20183;-65
2023/05/05 06:09:21;;;;;;;1999.90;999.90;;;;;;;23.22;100.00;95467.72;5008483;28;20334;-66
2023/05/05 06:11:46;;;;;;;1999.90;999.90;;;;;;;23.54;100.00;95466.69;5008741;28;20268;-67
2023/05/05 06:14:12;;;;;;;1999.90;999.90;;;;;;;23.37;100.00;95465.66;5008528;28;20178;-67
2023/05/05 06:16:37;;;;;;;1999.90;999.90;;;;;;;22.93;100.00;95473.28;5009002;28;20288;-67
2023/05/05 06:19:08;;;;;;;1999.90;999.90;;;;;;;22.24;100.00;95474.56;5008308;28;20183;-67
2023/05/05 06:21:34;;;;;;;1999.90;999.90;;;;;;;21.59;100.00;95471.94;5008659;28;20198;-67
2023/05/05 06:23:59;;;;;;;1999.90;999.90;;;;;;;21.38;100.00;95470.19;5008593;28;20191;-67
2023/05/05 06:26:25;;;;;;;1999.90;999.90;;;;;;;21.40;100.00;95472.50;5008220;28;20222;-67
2023/05/05 06:28:50;;;;;;;1999.90;999.90;;;;;;;21.88;100.00;95463.72;5008325;28;20194;-67
2023/05/05 06:31:16;;;;;;;1999.90;999.90;;;;;;;21.84;100.00;95468.72;5008105;28;20215;-68
2023/05/05 06:33:41;;;;;;;1999.90;999.90;;;;;;;21.50;100.00;95474.78;5008189;28;20183;-67
2023/05/05 06:36:10;;;;;;;1999.90;999.90;;;;;;;21.34;100.00;95480.72;5008112;28;20194;-67
2023/05/05 06:38:35;;;;;;;1999.90;999.90;;;;;;;21.52;100.00;95475.06;5007638;28;20183;-68
2023/05/05 06:41:01;;;;;;;1999.90;999.90;;;;;;;23.45;100.00;95475.91;5008216;28;20249;-68
2023/05/05 06:43:28;;;;;;;1999.90;999.90;;;;;;;23.41;100.00;95480.94;5007965;28;20175;-67
2023/05/05 06:45:53;;;;;;;1999.90;999.90;;;;;;;23.68;100.00;95472.22;5008363;28;20199;-66
2023/05/05 06:48:19;;;;;;;1999.90;999.90;;;;;;;23.51;100.00;95478.78;5008507;28;20191;-67
2023/05/05 06:50:44;;;;;;;1999.90;999.90;;;;;;;24.24;100.00;95477.25;5008234;28;20210;-68
2023/05/05 06:53:09;;;;;;;1999.90;999.90;;;;;;;25.42;100.00;95470.28;5008323;28;20191;-68
2023/05/05 06:55:35;;;;;;;1999.90;999.90;;;;;;;26.46;92.15;95467.28;5007671;28;20190;-67
2023/05/05 06:58:00;;;;;;;1999.90;999.90;;;;;;;27.84;81.27;95473.78;5007828;28;20194;-68
2023/05/05 07:00:26;;;;;;;1999.90;999.90;;;;;;;29.27;67.52;95479.94;5007791;28;20222;-69
2023/05/05 07:02:51;;;;;;;1999.90;999.90;;;;;;;29.93;64.54;95468.13;5007746;28;20195;-69
2023/05/05 07:05:17;;;;;;;1999.90;999.90;;;;;;;30.37;59.57;95478.91;5007685;28;20195;-69
2023/05/05 07:07:53;;;;;;;1999.90;999.90;;;;;;;29.87;63.51;95481.50;5007620;28;20209;-68
2023/05/05 07:10:18;;;;;;;1999.90;999.90;;;;;;;30.45;60.58;95485.47;5007392;28;20273;-69
2023/05/05 07:12:44;;;;;;;1999.90;999.90;;;;;;;30.76;57.79;95487.66;5007598;28;20175;-69
2023/05/05 07:15:10;;;;;;;1999.90;999.90;;;;;;;30.87;55.63;95481.84;5008110;28;20221;-69
2023/05/05 07:17:38;;;;;;;1999.90;999.90;;;;;;;31.40;55.72;95483.63;5008013;28;20225;-69
2023/05/05 07:20:04;;;;;;;1999.90;999.90;;;;;;;32.06;50.14;95493.03;5008049;28;20217;-69
2023/05/05 07:22:29;;;;;;;1999.90;999.90;;;;;;;32.31;49.53;95491.53;5007153;28;20195;-69
2023/05/05 07:24:55;;;;;;;1999.90;999.90;;;;;;;32.89;46.97;95495.72;5007737;28;20201;-69
2023/05/05 07:27:21;;;;;;;1999.90;999.90;;;;;;;32.98;47.48;95486.78;5007313;28;20187;-69
2023/05/05 07:29:46;;;;;;;1999.90;999.90;;;;;;;33.22;44.61;95500.63;5007504;28;20313;-69
2023/05/05 07:32:12;;;;;;;1999.90;999.90;;;;;;;32.48;48.17;95491.97;5007942;28;20190;-70
2023/05/05 07:34:39;;;;;;;1999.90;999.90;;;;;;;33.25;45.89;95493.88;5007869;28;20195;-70
2023/05/05 07:37:05;;;;;;;1999.90;999.90;;;;;;;33.25;44.50;95491.03;5007438;28;20214;-71
2023/05/05 07:39:31;;;;;;;1999.90;999.90;;;;;;;32.63;46.60;95495.00;5007422;28;20195;-70
2023/05/05 07:41:56;;;;;;;1999.90;999.90;;;;;;;33.25;46.65;95493.13;5007541;28;20186;-69
2023/05/05 07:44:22;;;;;;;1999.90;999.90;;;;;;;32.84;47.27;95488.13;5007900;28;20239;-69
2023/05/05 07:46:47;;;;;;;1999.90;999.90;;;;;;;33.62;45.87;95493.50;5007281;28;20221;-69
2023/05/05 07:49:13;;;;;;;1999.90;999.90;;;;;;;33.71;42.46;95486.59;5007554;28;20199;-70
2023/05/05 07:51:38;;;;;;;1999.90;999.90;;;;;;;33.13;44.83;95491.84;5009561;28;20191;-70
2023/05/05 07:54:04;;;;;;;1999.90;999.90;;;;;;;34.17;43.45;95477.16;5011398;28;20194;-71
2023/05/05 07:56:29;;;;;;;1999.90;999.90;;;;;;;34.88;40.56;95484.97;5010729;28;20233;-71
2023/05/05 07:58:54;;;;;;;1999.90;999.90;;;;;;;34.96;38.79;95492.19;5011287;28;20271;-70
2023/05/05 08:01:20;;;;;;;1999.90;999.90;;;;;;;34.48;39.10;95487.41;5011005;28;20213;-71
2023/05/05 08:03:45;;;;;;;1999.90;999.90;;;;;;;33.97;39.89;95491.38;5011226;28;20195;-71
2023/05/05 08:06:14;;;;;;;1999.90;999.90;;;;;;;34.02;39.55;95491.25;5011195;28;20194;-71
2023/05/05 08:08:40;;;;;;;1999.90;999.90;;;;;;;34.01;39.90;95488.97;5010847;28;20219;-69
2023/05/05 08:11:05;;;;;;;1999.90;999.90;;;;;;;35.11;39.10;95480.13;5011058;28;20203;-69
2023/05/05 08:13:31;;;;;;;1999.90;999.90;;;;;;;34.60;38.28;95482.94;5010820;28;20251;-70
2023/05/05 08:15:56;;;;;;;1999.90;999.90;;;;;;;34.63;38.79;95483.88;5011087;28;20221;-70
2023/05/05 08:18:21;;;;;;;1999.90;999.90;;;;;;;34.95;38.53;95482.16;5010973;28;20198;-70
2023/05/05 08:20:47;;;;;;;1999.90;999.90;;;;;;;35.07;36.88;95479.75;5010900;28;20201;-70
2023/05/05 08:23:12;;;;;;;1999.90;999.90;;;;;;;34.69;37.34;95484.47;5011023;28;20191;-69
2023/05/05 08:25:37;;;;;;;1999.90;999.90;;;;;;;34.45;38.21;95482.09;5010587;28;20221;-70
2023/05/05 08:28:03;;;;;;;1999.90;999.90;;;;;;;33.82;40.18;95478.59;5010620;28;20194;-69
2023/05/05 08:30:28;;;;;;;1999.90;999.90;;;;;;;34.11;40.20;95470.88;5010419;28;20210;-69
2023/05/05 08:32:54;;;;;;;1999.90;999.90;;;;;;;34.72;38.47;95474.84;5010360;28;20194;-70
2023/05/05 08:35:19;;;;;;;1999.90;999.90;;;;;;;35.28;37.80;95469.75;5010401;28;20222;-70
2023/05/05 08:37:45;;;;;;;1999.90;999.90;;;;;;;35.70;36.13;95470.22;5010929;28;20199;-71
2023/05/05 08:40:15;;;;;;;1999.90;999.90;;;;;;;35.72;36.40;95470.41;5010438;28;20218;-70
2023/05/05 08:42:41;;;;;;;1999.90;999.90;;;;;;;34.75;39.13;95465.97;5010758;28;20237;-69
2023/05/05 08:45:10;;;;;;;1999.90;999.90;;;;;;;35.11;38.33;95469.53;5010787;28;20214;-69
2023/05/05 08:47:36;;;;;;;1999.90;999.90;;;;;;;35.57;36.90;95476.06;5010924;28;20191;-69
2023/05/05 08:50:04;;;;;;;1999.90;999.90;;;;;;;34.51;37.91;95474.16;5010337;28;20215;-69
2023/05/05 08:52:37;;;;;;;1999.90;999.90;;;;;;;33.88;39.08;95472.78;5010345;28;20199;-69
2023/05/05 08:55:07;;;;;;;1999.90;999.90;;;;;;;33.78;39.44;95478.16;5010534;28;20195;-69
2023/05/05 08:57:42;;;;;;;1999.90;999.90;;;;;;;34.05;40.17;95472.34;5009819;28;20199;-69
2023/05/05 09:00:11;;;;;;;1999.90;999.90;;;;;;;33.98;39.13;95473.03;5010078;28;20281;-69
2023/05/05 09:02:38;;;;;;;1999.90;999.90;;;;;;;34.16;40.39;95466.38;5009733;28;20227;-70
2023/05/05 09:05:05;;;;;;;1999.90;999.90;;;;;;;33.93;40.24;95471.88;5010248;28;20191;-71
2023/05/05 09:07:31;;;;;;;1999.90;999.90;;;;;;;33.84;41.06;95470.28;5009734;28;20175;-71
2023/05/05 09:09:58;;;;;;;1999.90;999.90;;;;;;;34.37;39.09;95469.94;5010129;28;20257;-70
2023/05/05 09:12:26;;;;;;;1999.90;999.90;;;;;;;33.89;40.55;95470.72;5009501;28;20195;-71
2023/05/05 09:14:52;;;;;;;1999.90;999.90;;;;;;;34.01;39.97;95472.69;5009423;28;20277;-71
2023/05/05 09:17:25;;;;;;;1999.90;999.90;;;;;;;33.81;40.68;95473.47;5010042;28;20238;-70
2023/05/05 09:20:07;;;;;;;1999.90;999.90;;;;;;;33.50;40.89;95463.94;5009598;28;20214;-70
2023/05/05 09:22:43;;;;;;;1999.90;999.90;;;;;;;34.37;39.44;95452.91;5009283;28;20195;-70
2023/05/05 09:25:11;;;;;;;1999.90;999.90;;;;;;;34.46;39.18;95455.22;5010028;28;20244;-70
2023/05/05 09:27:39;;;;;;;1999.90;999.90;;;;;;;34.97;38.81;95458.88;5009622;28;20198;-70
2023/05/05 09:30:05;;;;;;;1999.90;999.90;;;;;;;34.62;39.39;95457.56;5009885;28;20274;-70
2023/05/05 09:32:46;;;;;;;1999.90;999.90;;;;;;;34.28;39.00;95457.00;5009740;28;20274;-71
2023/05/05 09:35:11;;;;;;;1999.90;999.90;;;;;;;34.37;40.60;95452.91;5009536;28;20244;-70
2023/05/05 09:37:37;;;;;;;1999.90;999.90;;;;;;;33.35;42.02;95463.78;5009242;28;20195;-70
2023/05/05 09:40:04;;;;;;;1999.90;999.90;;;;;;;33.43;42.25;95458.22;5009332;28;20191;-70
2023/05/05 09:42:29;;;;;;;1999.90;999.90;;;;;;;33.23;43.42;95459.69;5009098;28;20199;-71
2023/05/05 09:44:55;;;;;;;1999.90;999.90;;;;;;;33.38;44.36;95451.38;5009125;28;20206;-71
2023/05/05 09:47:20;;;;;;;1999.90;999.90;;;;;;;33.22;44.37;95448.91;5008725;28;20266;-71
2023/05/05 09:49:56;;;;;;;1999.90;999.90;;;;;;;33.44;45.16;95442.72;5009251;28;20211;-71
2023/05/05 09:52:22;;;;;;;1999.90;999.90;;;;;;;32.53;44.79;95446.59;5009425;28;20249;-71
2023/05/05 09:54:53;;;;;;;1999.90;999.90;;;;;;;33.83;43.29;95446.09;5009088;28;20254;-72
2023/05/05 09:57:31;;;;;;;1999.90;999.90;;;;;;;34.01;39.84;95446.41;5008735;28;20265;-71
2023/05/05 10:00:02;;;;;;;1999.90;999.90;;;;;;;33.03;42.00;95443.41;5008941;28;20199;-70
2023/05/05 10:02:33;;;;;;;1999.90;999.90;;;;;;;33.21;40.72;95442.47;5009074;28;20198;-70
2023/05/05 10:05:08;;;;;;;1999.90;999.90;;;;;;;32.44;42.72;95438.53;5008529;28;20191;-71
2023/05/05 10:07:34;;;;;;;1999.90;999.90;;;;;;;32.83;45.51;95441.31;5008698;28;20195;-70
2023/05/05 10:10:02;;;;;;;1999.90;999.90;;;;;;;33.14;40.39;95440.31;5008735;28;20217;-69
2023/05/05 10:12:28;;;;;;;1999.90;999.90;;;;;;;30.96;47.11;95433.50;5008230;28;20191;-71
2023/05/05 10:14:55;;;;;;;1999.90;999.90;;;;;;;31.21;48.69;95436.94;5008070;28;20214;-70
2023/05/05 10:17:22;;;;;;;1999.90;999.90;;;;;;;31.73;46.21;95429.38;5008954;28;20175;-70
2023/05/05 10:19:51;;;;;;;1999.90;999.90;;;;;;;31.18;49.22;95427.50;5008954;28;20206;-71
2023/05/05 10:22:21;;;;;;;1999.90;999.90;;;;;;;29.67;51.63;95432.00;5008295;28;20195;-70
2023/05/05 10:24:56;;;;;;;1999.90;999.90;;;;;;;30.10;53.45;95426.41;5008634;28;20195;-70
2023/05/05 10:27:23;;;;;;;1999.90;999.90;;;;;;;31.11;51.18;95422.47;5008626;28;20201;-70
2023/05/05 10:30:05;;;;;;;1999.90;999.90;;;;;;;31.37;48.26;95424.63;5008269;28;20218;-71
2023/05/05 10:32:37;;;;;;;1999.90;999.90;;;;;;;31.24;50.22;95419.69;5008341;28;20222;-70
2023/05/05 10:35:06;;;;;;;1999.90;999.90;;;;;;;30.45;52.83;95420.63;5008262;28;20229;-71
2023/05/05 10:37:31;;;;;;;1999.90;999.90;;;;;;;30.80;52.16;95414.75;5008591;28;20179;-71
2023/05/05 10:39:57;;;;;;;1999.90;999.90;;;;;;;30.99;50.69;95413.41;5008641;28;20218;-70
2023/05/05 10:42:23;;;;;;;1999.90;999.90;;;;;;;30.80;48.50;95409.09;5008436;28;20183;-71
2023/05/05 10:44:50;;;;;;;1999.90;999.90;;;;;;;31.33;45.85;95405.19;5007974;28;20265;-70
2023/05/05 10:47:20;;;;;;;1999.90;999.90;;;;;;;31.66;47.06;95407.41;5008418;28;20191;-70
2023/05/05 10:49:45;;;;;;;1999.90;999.90;;;;;;;32.48;44.93;95399.38;5008118;28;20211;-69
2023/05/05 10:52:45;;;;;;;1999.90;999.90;;;;;;;32.34;44.74;95409.19;5007960;28;20249;-71